createdAt,value
2019-03-19T00:02:12.522Z,6.20
2019-03-19T00:04:44.477Z,6.97
2019-03-19T00:07:16.455Z,6.13
2019-03-19T00:09:48.561Z,8.03
2019-03-19T00:12:20.571Z,8.63
2019-03-19T00:14:52.527Z,8.80
2019-03-19T00:17:24.501Z,8.67
2019-03-19T00:19:56.455Z,9.70
2019-03-19T00:22:28.429Z,9.77
2019-03-19T00:25:00.419Z,6.73
2019-03-19T00:27:32.408Z,7.03
2019-03-19T00:30:05.634Z,7.10
2019-03-19T00:32:37.589Z,6.93
2019-03-19T00:35:09.743Z,5.90
2019-03-19T00:37:41.758Z,6.53
2019-03-19T00:40:13.730Z,6.70
2019-03-19T00:42:45.714Z,7.90
2019-03-19T00:45:17.696Z,7.80
2019-03-19T00:47:49.647Z,7.67
2019-03-19T00:50:21.598Z,6.50
2019-03-19T00:52:53.595Z,6.83
2019-03-19T00:55:25.579Z,7.97
2019-03-19T00:57:57.579Z,8.63
2019-03-19T01:00:30.616Z,6.40
2019-03-19T01:03:02.612Z,6.10
2019-03-19T01:05:34.542Z,6.07
2019-03-19T01:08:06.700Z,6.27
2019-03-19T01:10:38.700Z,6.07
2019-03-19T01:13:10.661Z,6.40
2019-03-19T01:15:42.604Z,6.00
2019-03-19T01:18:14.566Z,6.57
2019-03-19T01:20:46.503Z,5.60
2019-03-19T01:23:18.534Z,5.40
2019-03-19T01:25:55.442Z,6.27
2019-03-19T01:28:24.330Z,6.87
2019-03-19T01:30:57.404Z,6.70
2019-03-19T01:33:29.377Z,6.80
2019-03-19T01:36:01.338Z,7.10
2019-03-19T01:38:33.318Z,6.90
2019-03-19T01:41:05.287Z,6.90
2019-03-19T01:43:37.265Z,6.73
2019-03-19T01:46:09.213Z,6.33
2019-03-19T01:48:41.189Z,6.30
2019-03-19T01:51:13.174Z,7.40
2019-03-19T01:53:45.223Z,6.63
2019-03-19T01:56:17.453Z,7.27
2019-03-19T01:58:49.393Z,5.77
2019-03-19T02:01:21.373Z,7.23
2019-03-19T02:03:53.332Z,6.83
2019-03-19T02:06:25.301Z,6.23
2019-03-19T02:08:57.366Z,6.07
2019-03-19T02:11:29.349Z,6.50
2019-03-19T02:14:01.282Z,6.37
2019-03-19T02:16:35.079Z,6.57
2019-03-19T02:19:07.190Z,6.20
2019-03-19T02:21:39.169Z,6.60
2019-03-19T02:24:11.246Z,6.13
2019-03-19T02:26:43.204Z,6.00
2019-03-19T02:29:15.148Z,6.37
2019-03-19T02:31:47.157Z,7.63
2019-03-19T02:34:19.082Z,7.13
2019-03-19T02:36:51.044Z,6.73
2019-03-19T02:39:22.982Z,6.70
2019-03-19T02:41:54.980Z,7.13
2019-03-19T02:44:26.972Z,7.03
2019-03-19T02:46:58.938Z,7.70
2019-03-19T02:49:30.894Z,8.17
2019-03-19T02:52:04.811Z,9.63
2019-03-19T02:54:36.869Z,9.50
2019-03-19T02:57:08.883Z,8.07
2019-03-19T02:59:40.822Z,8.50
2019-03-19T03:02:12.799Z,9.83
2019-03-19T03:04:44.730Z,9.37
2019-03-19T03:07:16.823Z,10.80
2019-03-19T03:09:48.771Z,9.10
2019-03-19T03:12:20.745Z,10.00
2019-03-19T03:14:52.685Z,9.63
2019-03-19T03:17:24.642Z,9.00
2019-03-19T03:19:56.627Z,9.27
2019-03-19T03:22:28.601Z,8.60
2019-03-19T03:25:00.758Z,9.20
2019-03-19T03:27:32.866Z,10.57
2019-03-19T03:30:05.896Z,9.27
2019-03-19T03:32:37.863Z,9.70
2019-03-19T03:35:10.113Z,8.83
2019-03-19T03:37:42.030Z,9.67
2019-03-19T03:40:14.061Z,9.37
2019-03-19T03:42:46.044Z,9.27
2019-03-19T03:45:18.015Z,9.27
2019-03-19T03:47:49.942Z,10.43
2019-03-19T03:50:21.935Z,9.80
2019-03-19T03:52:53.891Z,11.20
2019-03-19T03:55:25.867Z,10.57
2019-03-19T03:57:58.136Z,9.47
2019-03-19T04:00:30.110Z,10.23
2019-03-19T04:03:02.024Z,9.83
2019-03-19T04:05:33.997Z,9.47
2019-03-19T04:08:05.984Z,9.03
2019-03-19T04:10:37.913Z,10.57
2019-03-19T04:13:09.881Z,11.00
2019-03-19T04:15:41.862Z,10.53
2019-03-19T04:18:13.827Z,10.63
2019-03-19T04:20:45.812Z,10.97
2019-03-19T04:23:17.768Z,11.73
2019-03-19T04:25:49.729Z,11.10
2019-03-19T04:28:21.683Z,11.17
2019-03-19T04:30:53.862Z,11.80
2019-03-19T04:33:25.830Z,11.30
2019-03-19T04:35:57.803Z,11.27
2019-03-19T04:38:29.800Z,12.57
2019-03-19T04:41:01.790Z,13.27
2019-03-19T04:43:33.908Z,13.77
2019-03-19T04:46:05.885Z,13.00
2019-03-19T04:48:37.815Z,12.43
2019-03-19T04:51:11.588Z,11.73
2019-03-19T04:53:43.518Z,12.20
2019-03-19T04:56:15.490Z,11.10
2019-03-19T04:58:47.410Z,12.10
2019-03-19T05:01:19.384Z,11.27
2019-03-19T05:03:51.336Z,13.10
2019-03-19T05:06:23.310Z,13.03
2019-03-19T05:08:55.295Z,13.70
2019-03-19T05:11:27.287Z,13.40
2019-03-19T05:13:59.220Z,13.23
2019-03-19T05:16:31.227Z,13.47
2019-03-19T05:19:03.183Z,13.57
2019-03-19T05:21:35.159Z,14.73
2019-03-19T05:24:07.169Z,15.83
2019-03-19T05:26:39.170Z,15.77
2019-03-19T05:29:11.128Z,16.40
2019-03-19T05:31:43.122Z,16.30
2019-03-19T05:34:15.071Z,17.03
2019-03-19T05:36:47.034Z,16.43
2019-03-19T05:39:18.991Z,18.10
2019-03-19T05:41:50.936Z,15.80
2019-03-19T05:44:22.965Z,17.10
2019-03-19T05:46:54.934Z,16.80
2019-03-19T05:49:26.918Z,16.87
2019-03-19T05:51:58.869Z,18.73
2019-03-19T05:54:30.842Z,19.07
2019-03-19T05:57:02.861Z,16.87
2019-03-19T05:59:34.828Z,16.27
2019-03-19T06:02:06.792Z,15.53
2019-03-19T06:04:38.808Z,18.50
2019-03-19T06:07:10.816Z,19.03
2019-03-19T06:09:42.803Z,18.23
2019-03-19T06:12:14.727Z,17.30
2019-03-19T06:14:46.695Z,20.03
2019-03-19T06:17:18.631Z,18.43
2019-03-19T06:19:50.598Z,16.17
2019-03-19T06:22:22.564Z,16.17
2019-03-19T06:24:54.512Z,17.77
2019-03-19T06:27:26.478Z,16.70
2019-03-19T06:29:58.492Z,16.60
2019-03-19T06:32:30.438Z,19.43
2019-03-19T06:35:02.430Z,18.87
2019-03-19T06:37:34.437Z,19.33
2019-03-19T06:40:08.361Z,19.17
2019-03-19T06:42:40.342Z,18.20
2019-03-19T06:45:12.943Z,16.30
2019-03-19T06:47:44.918Z,16.30
2019-03-19T06:50:17.013Z,15.30
2019-03-19T06:52:48.967Z,15.00
2019-03-19T06:55:20.955Z,14.87
2019-03-19T06:58:10.315Z,14.97
2019-03-19T07:00:33.971Z,14.53
2019-03-19T07:03:05.958Z,13.63
2019-03-19T07:05:37.929Z,15.60
2019-03-19T07:08:09.881Z,18.90
2019-03-19T07:10:41.867Z,14.03
2019-03-19T07:13:14.013Z,14.10
2019-03-19T07:15:46.001Z,14.90
2019-03-19T07:18:17.952Z,15.23
2019-03-19T07:20:50.124Z,14.53
2019-03-19T07:23:22.096Z,16.93
2019-03-19T07:25:54.194Z,16.00
2019-03-19T07:28:26.163Z,16.90
2019-03-19T07:30:58.388Z,16.33
2019-03-19T07:33:30.385Z,16.87
2019-03-19T07:36:02.386Z,18.80
2019-03-19T07:38:34.365Z,19.97
2019-03-19T07:41:06.424Z,17.40
2019-03-19T07:43:38.370Z,17.10
2019-03-19T07:46:10.341Z,18.27
2019-03-19T07:48:42.317Z,18.20
2019-03-19T07:51:14.258Z,17.57
2019-03-19T07:53:46.241Z,17.73
2019-03-19T07:56:18.201Z,17.30
2019-03-19T07:58:50.173Z,18.03
2019-03-19T08:01:24.507Z,17.83
2019-03-19T08:03:56.007Z,17.37
2019-03-19T08:06:27.958Z,17.93
2019-03-19T08:08:59.949Z,16.67
2019-03-19T08:11:32.094Z,15.77
2019-03-19T08:14:04.065Z,16.27
2019-03-19T08:16:36.121Z,15.67
2019-03-19T08:19:09.202Z,15.43
2019-03-19T08:21:41.181Z,16.50
2019-03-19T08:24:13.203Z,15.07
2019-03-19T08:26:45.158Z,14.73
2019-03-19T08:29:17.152Z,15.17
2019-03-19T08:31:49.267Z,13.57
2019-03-19T08:34:21.248Z,14.93
2019-03-19T08:36:53.271Z,14.00
2019-03-19T08:39:25.255Z,13.90
2019-03-19T08:41:57.210Z,16.10
2019-03-19T08:44:29.298Z,17.50
2019-03-19T08:47:01.254Z,15.20
2019-03-19T08:49:35.044Z,14.50
2019-03-19T08:52:06.997Z,14.83
2019-03-19T08:54:39.074Z,15.70
2019-03-19T08:57:11.030Z,14.63
2019-03-19T08:59:43.004Z,14.90
2019-03-19T09:02:14.980Z,15.20
2019-03-19T09:04:46.953Z,14.80
2019-03-19T09:07:20.135Z,14.27
2019-03-19T09:09:52.248Z,14.13
2019-03-19T09:12:24.210Z,13.07
2019-03-19T09:14:56.173Z,11.90
2019-03-19T09:17:28.138Z,13.30
2019-03-19T09:20:00.333Z,13.27
2019-03-19T09:22:32.575Z,13.30
2019-03-19T09:25:05.243Z,14.17
2019-03-19T09:27:37.315Z,11.57
2019-03-19T09:30:11.756Z,10.03
2019-03-19T09:32:43.813Z,11.87
2019-03-19T09:35:16.014Z,9.57
2019-03-19T09:37:57.835Z,8.00
2019-03-19T09:40:21.883Z,11.57
2019-03-19T09:42:54.005Z,10.17
2019-03-19T09:45:25.985Z,9.80
2019-03-19T09:47:57.978Z,10.07
2019-03-19T09:50:29.961Z,9.23
2019-03-19T09:53:02.041Z,9.27
2019-03-19T09:55:34.021Z,9.27
2019-03-19T09:58:06.101Z,9.10
2019-03-19T10:00:38.151Z,8.57
2019-03-19T10:03:10.142Z,8.63
2019-03-19T10:05:42.089Z,7.50
2019-03-19T10:08:14.098Z,8.40
2019-03-19T10:10:46.115Z,8.33
2019-03-19T10:13:18.214Z,7.40
2019-03-19T10:15:50.161Z,9.57
2019-03-19T10:18:22.153Z,8.37
2019-03-19T10:20:54.186Z,8.40
2019-03-19T10:23:26.357Z,9.50
2019-03-19T10:25:58.317Z,8.13
2019-03-19T10:28:30.328Z,9.33
2019-03-19T10:31:02.324Z,9.90
2019-03-19T10:33:34.319Z,9.27
2019-03-19T10:36:06.338Z,9.13
2019-03-19T10:38:38.316Z,8.37
2019-03-19T10:41:10.302Z,8.37
2019-03-19T10:43:42.455Z,8.47
2019-03-19T10:46:14.996Z,7.80
2019-03-19T10:48:47.112Z,8.27
2019-03-19T10:51:19.101Z,7.87
2019-03-19T10:53:51.131Z,9.03
2019-03-19T10:56:24.224Z,6.33
2019-03-19T10:58:56.234Z,8.57
2019-03-19T11:01:28.213Z,6.77
2019-03-19T11:04:00.186Z,6.53
2019-03-19T11:06:32.157Z,7.83
2019-03-19T11:09:05.934Z,6.17
2019-03-19T11:11:37.901Z,6.60
2019-03-19T11:14:09.890Z,6.27
2019-03-19T11:16:41.844Z,6.70
2019-03-19T11:19:13.828Z,6.53
2019-03-19T11:21:45.888Z,7.83
2019-03-19T11:24:17.906Z,5.90
2019-03-19T11:26:49.936Z,5.47
2019-03-19T11:29:21.949Z,5.27
2019-03-19T11:31:53.995Z,5.33
2019-03-19T11:34:25.973Z,5.03
2019-03-19T11:36:58.259Z,8.30
2019-03-19T11:39:30.315Z,6.50
2019-03-19T11:42:02.314Z,5.83
2019-03-19T11:44:34.282Z,6.27
2019-03-19T11:47:06.320Z,5.63
2019-03-19T11:49:38.263Z,7.17
2019-03-19T11:52:10.353Z,5.10
2019-03-19T11:54:42.425Z,5.30
2019-03-19T11:57:14.413Z,5.63
2019-03-19T11:59:46.481Z,5.10
2019-03-19T12:02:25.898Z,5.00
2019-03-19T12:04:52.365Z,5.27
2019-03-19T12:07:24.387Z,4.90
2019-03-19T12:09:56.397Z,8.70
2019-03-19T12:12:28.367Z,5.33
2019-03-19T12:15:00.436Z,5.67
2019-03-19T12:17:32.525Z,5.60
2019-03-19T12:20:05.068Z,6.67
2019-03-19T12:22:37.056Z,6.00
2019-03-19T12:25:09.064Z,6.53
2019-03-19T12:27:41.272Z,5.53
2019-03-19T12:30:21.766Z,6.87
2019-03-19T12:32:47.482Z,6.40
2019-03-19T12:35:19.713Z,7.17
2019-03-19T12:37:51.686Z,4.80
2019-03-19T12:40:23.697Z,5.60
2019-03-19T12:42:55.680Z,5.30
2019-03-19T12:45:27.709Z,5.13
2019-03-19T12:47:59.751Z,5.10
2019-03-19T12:50:31.722Z,5.33
2019-03-19T12:53:03.992Z,5.17
2019-03-19T12:55:36.003Z,5.03
2019-03-19T12:58:07.991Z,4.90
2019-03-19T13:00:39.964Z,4.67
2019-03-19T13:03:11.973Z,4.97
2019-03-19T13:05:45.754Z,5.93
2019-03-19T13:08:20.220Z,5.53
2019-03-19T13:10:51.662Z,5.00
2019-03-19T13:13:23.619Z,4.77
2019-03-19T13:15:55.632Z,5.80
2019-03-19T13:18:27.622Z,4.93
2019-03-19T13:20:59.579Z,5.63
2019-03-19T13:23:31.563Z,5.13
2019-03-19T13:26:03.568Z,4.80
2019-03-19T13:28:35.542Z,4.70
2019-03-19T13:31:07.546Z,5.80
2019-03-19T13:33:39.510Z,6.10
2019-03-19T13:36:11.522Z,4.80
2019-03-19T13:38:43.496Z,5.73
2019-03-19T13:41:15.478Z,4.87
2019-03-19T13:43:47.436Z,4.70
2019-03-19T13:46:19.433Z,5.20
2019-03-19T13:48:51.407Z,5.27
2019-03-19T13:51:23.396Z,5.90
2019-03-19T13:53:55.357Z,5.73
2019-03-19T13:56:27.402Z,5.87
2019-03-19T13:58:59.399Z,4.50
2019-03-19T14:01:31.412Z,5.30
2019-03-19T14:04:03.484Z,7.23
2019-03-19T14:06:35.490Z,6.13
2019-03-19T14:09:08.385Z,4.93
2019-03-19T14:11:40.386Z,5.77
2019-03-19T14:14:12.385Z,6.30
2019-03-19T14:16:44.367Z,4.97
2019-03-19T14:19:16.328Z,5.00
2019-03-19T14:21:48.330Z,5.00
2019-03-19T14:24:20.282Z,4.80
2019-03-19T14:26:52.259Z,5.90
2019-03-19T14:29:24.243Z,4.10
2019-03-19T14:31:56.260Z,5.40
2019-03-19T14:34:28.221Z,4.03
2019-03-19T14:37:00.202Z,4.43
2019-03-19T14:39:32.175Z,4.83
2019-03-19T14:42:04.230Z,4.23
2019-03-19T14:44:36.250Z,4.97
2019-03-19T14:47:08.254Z,4.73
2019-03-19T14:49:47.044Z,4.23
2019-03-19T14:52:54.914Z,5.37
2019-03-19T14:55:46.350Z,4.27
2019-03-19T14:58:18.360Z,4.10
2019-03-19T15:00:50.309Z,5.30
2019-03-19T15:03:22.332Z,4.73
2019-03-19T15:05:54.356Z,4.37
2019-03-19T15:08:26.337Z,3.87
2019-03-19T15:10:58.322Z,5.50
2019-03-19T15:13:30.370Z,4.50
2019-03-19T15:16:02.334Z,4.10
2019-03-19T15:18:34.402Z,3.73
2019-03-19T15:21:06.392Z,3.70
2019-03-19T15:23:38.446Z,3.97
2019-03-19T15:26:10.475Z,5.57
2019-03-19T15:28:42.484Z,4.83
2019-03-19T15:31:14.547Z,3.00
2019-03-19T15:33:46.555Z,4.33
2019-03-19T15:36:18.523Z,3.50
2019-03-19T15:38:50.552Z,3.50
2019-03-19T15:41:22.629Z,3.73
2019-03-19T15:43:54.627Z,3.20
2019-03-19T15:46:26.737Z,3.30
2019-03-19T15:49:00.475Z,4.27
2019-03-19T15:51:32.637Z,3.30
2019-03-19T15:54:04.648Z,4.67
2019-03-19T15:56:36.633Z,4.83
2019-03-19T15:59:08.643Z,3.97
2019-03-19T16:01:40.867Z,4.07
2019-03-19T16:04:12.950Z,4.67
2019-03-19T16:06:44.943Z,3.70
2019-03-19T16:09:16.998Z,4.70
2019-03-19T16:11:49.008Z,5.83
2019-03-19T16:14:21.034Z,3.70
2019-03-19T16:16:53.054Z,4.10
2019-03-19T16:19:25.075Z,3.40
2019-03-19T16:21:57.067Z,6.27
2019-03-19T16:24:29.069Z,5.30
2019-03-19T16:27:01.035Z,6.20
2019-03-19T16:29:32.995Z,3.03
2019-03-19T16:32:05.041Z,7.10
2019-03-19T16:34:37.141Z,3.63
2019-03-19T16:37:09.146Z,6.13
2019-03-19T16:39:41.141Z,4.00
2019-03-19T16:42:13.156Z,3.70
2019-03-19T16:44:45.086Z,5.57
2019-03-19T16:47:17.163Z,3.30
2019-03-19T16:49:49.155Z,4.77
2019-03-19T16:52:21.214Z,6.13
2019-03-19T16:54:53.240Z,4.53
2019-03-19T16:57:25.300Z,4.57
2019-03-19T16:59:57.327Z,4.30
2019-03-19T17:02:29.343Z,3.83
2019-03-19T17:05:01.372Z,3.60
2019-03-19T17:07:33.394Z,3.60
2019-03-19T17:10:06.604Z,4.23
2019-03-19T17:12:38.625Z,4.67
2019-03-19T17:15:11.248Z,4.40
2019-03-19T17:17:43.306Z,3.97
2019-03-19T17:20:15.352Z,6.50
2019-03-19T17:22:47.525Z,7.30
2019-03-19T17:25:19.542Z,6.13
2019-03-19T17:27:51.531Z,7.17
2019-03-19T17:30:23.564Z,7.87
2019-03-19T17:32:55.602Z,9.43
2019-03-19T17:35:27.570Z,12.17
2019-03-19T17:37:59.611Z,11.73
2019-03-19T17:40:40.871Z,8.13
2019-03-19T17:43:05.523Z,6.93
2019-03-19T17:45:37.618Z,6.00
2019-03-19T17:48:16.208Z,4.30
2019-03-19T17:50:43.607Z,4.33
2019-03-19T17:53:15.666Z,4.30
2019-03-19T17:55:47.679Z,5.60
2019-03-19T17:58:19.767Z,4.60
2019-03-19T18:00:52.023Z,5.77
2019-03-19T18:03:24.056Z,6.37
2019-03-19T18:05:56.046Z,12.50
2019-03-19T18:08:28.219Z,8.07
2019-03-19T18:11:00.197Z,8.97
2019-03-19T18:13:32.233Z,6.93
2019-03-19T18:16:04.296Z,5.53
2019-03-19T18:18:36.387Z,7.87
2019-03-19T18:21:08.441Z,18.67
2019-03-19T18:23:40.508Z,52.17
2019-03-19T18:26:12.546Z,14.00
2019-03-19T18:28:44.553Z,7.73
2019-03-19T18:31:16.602Z,7.10
2019-03-19T18:33:48.605Z,5.10
2019-03-19T18:36:20.688Z,6.40
2019-03-19T18:38:52.758Z,6.67
2019-03-19T18:41:24.847Z,8.03
2019-03-19T18:43:56.936Z,6.53
2019-03-19T18:46:28.991Z,9.23
2019-03-19T18:49:01.019Z,13.27
2019-03-19T18:51:33.060Z,6.97
2019-03-19T18:54:05.073Z,4.90
2019-03-19T18:56:37.167Z,4.93
2019-03-19T18:59:09.207Z,4.93
2019-03-19T19:01:41.300Z,5.30
2019-03-19T19:04:13.337Z,6.27
2019-03-19T19:06:45.428Z,7.13
2019-03-19T19:09:17.478Z,8.30
2019-03-19T19:11:49.616Z,7.07
2019-03-19T19:14:21.670Z,8.20
2019-03-19T19:16:53.687Z,7.93
2019-03-19T19:19:25.745Z,6.77
2019-03-19T19:21:57.804Z,6.30
2019-03-19T19:24:29.799Z,8.87
2019-03-19T19:27:01.807Z,6.83
2019-03-19T19:29:33.885Z,8.63
2019-03-19T19:32:06.007Z,6.43
2019-03-19T19:34:38.022Z,8.43
2019-03-19T19:37:10.152Z,8.17
2019-03-19T19:39:42.266Z,9.97
2019-03-19T19:42:14.300Z,7.83
2019-03-19T19:44:46.312Z,6.83
2019-03-19T19:47:18.341Z,7.77
2019-03-19T19:49:50.394Z,7.77
2019-03-19T19:52:22.403Z,7.70
2019-03-19T19:54:54.498Z,8.50
2019-03-19T19:57:26.542Z,7.40
2019-03-19T19:59:58.810Z,8.83
2019-03-19T20:02:30.879Z,7.00
2019-03-19T20:05:03.803Z,7.57
2019-03-19T20:07:36.027Z,7.80
2019-03-19T20:10:10.894Z,7.07
2019-03-19T20:12:42.910Z,10.30
2019-03-19T20:15:14.979Z,11.17
2019-03-19T20:17:46.979Z,9.70
2019-03-19T20:20:19.041Z,8.23
2019-03-19T20:22:51.122Z,7.97
2019-03-19T20:25:23.162Z,9.10
2019-03-19T20:27:55.301Z,11.27
2019-03-19T20:30:27.395Z,18.63
2019-03-19T20:32:59.479Z,23.33
2019-03-19T20:35:31.532Z,10.10
2019-03-19T20:38:03.614Z,7.87
2019-03-19T20:40:35.710Z,30.47
2019-03-19T20:43:07.783Z,44.50
2019-03-19T20:45:39.827Z,20.77
2019-03-19T20:48:11.857Z,13.97
2019-03-19T20:50:43.902Z,10.20
2019-03-19T20:53:15.943Z,11.50
2019-03-19T20:55:47.946Z,10.83
2019-03-19T20:58:19.958Z,10.57
2019-03-19T21:00:52.019Z,10.43
2019-03-19T21:03:24.142Z,9.00
2019-03-19T21:05:56.123Z,56.67
2019-03-19T21:08:28.161Z,64.83
2019-03-19T21:11:00.172Z,20.70
2019-03-19T21:13:32.180Z,10.33
2019-03-19T21:16:04.234Z,11.53
2019-03-19T21:18:36.208Z,16.53
2019-03-19T21:21:08.221Z,17.70
2019-03-19T21:23:40.232Z,13.90
2019-03-19T21:26:12.280Z,13.10
2019-03-19T21:28:44.277Z,13.37
2019-03-19T21:31:16.386Z,11.27
2019-03-19T21:33:51.371Z,8.33
2019-03-19T21:36:22.329Z,9.87
2019-03-19T21:38:54.343Z,10.73
2019-03-19T21:41:26.355Z,8.37
2019-03-19T21:43:58.411Z,8.23
2019-03-19T21:46:30.572Z,8.27
2019-03-19T21:49:02.638Z,7.93
2019-03-19T21:51:34.620Z,7.07
2019-03-19T21:54:06.691Z,8.87
2019-03-19T21:56:38.642Z,8.30
2019-03-19T21:59:10.655Z,7.57
2019-03-19T22:01:42.655Z,7.23
2019-03-19T22:04:14.681Z,8.70
2019-03-19T22:06:46.844Z,8.60
2019-03-19T22:09:18.851Z,8.00
2019-03-19T22:11:50.856Z,8.17
2019-03-19T22:14:22.890Z,7.33
2019-03-19T22:16:57.634Z,7.87
2019-03-19T22:19:29.635Z,9.27
2019-03-19T22:22:01.605Z,7.80
2019-03-19T22:24:33.634Z,7.10
2019-03-19T22:27:05.599Z,8.53
2019-03-19T22:29:37.658Z,7.87
2019-03-19T22:32:09.666Z,8.63
2019-03-19T22:34:41.678Z,7.77
2019-03-19T22:37:13.626Z,7.07
2019-03-19T22:39:45.654Z,8.57
2019-03-19T22:42:17.621Z,9.53
2019-03-19T22:44:49.632Z,12.27
2019-03-19T22:47:21.599Z,10.27
2019-03-19T22:49:53.599Z,8.00
2019-03-19T22:52:25.566Z,7.73
2019-03-19T22:54:57.576Z,9.73
2019-03-19T22:57:29.589Z,8.43
2019-03-19T23:00:01.584Z,8.63
2019-03-19T23:02:33.778Z,9.00
2019-03-19T23:05:05.768Z,11.17
2019-03-19T23:07:37.784Z,10.90
2019-03-19T23:10:09.876Z,7.93
2019-03-19T23:12:41.874Z,8.57
2019-03-19T23:15:13.951Z,9.27
2019-03-19T23:17:45.984Z,10.03
2019-03-19T23:20:18.027Z,10.60
2019-03-19T23:22:50.027Z,8.60
2019-03-19T23:25:22.001Z,8.23
2019-03-19T23:27:54.024Z,7.97
2019-03-19T23:30:25.995Z,8.03
2019-03-19T23:32:58.046Z,9.60
2019-03-19T23:35:30.109Z,8.33
2019-03-19T23:38:02.116Z,8.93
2019-03-19T23:40:34.191Z,10.93
2019-03-19T23:43:06.186Z,9.60
2019-03-19T23:45:38.140Z,8.33
2019-03-19T23:48:10.212Z,8.53
2019-03-19T23:50:42.195Z,11.07
2019-03-19T23:53:14.223Z,9.40
2019-03-19T23:55:46.158Z,10.00
2019-03-19T23:58:18.151Z,8.43
